Meadow Valley, California
Current Conditions -  °F | °C
As of 10:53 PM on Wednesday 17 Dec 2014 (Local Time) from KOVE Reporting Station
Light Rain Light Rain  
Wind Chill: 50°   Ceiling: 3500
Heat Index: 50°   Visibility: 8mi
Dew Point: 48°   Wind: 6mph
Humidity: 93%   Direction: 90°E
Pressure: 30.13"   Gusts: NA
Location:  39.93°N, 121.06°W
Report Text: KOVE 180653Z AUTO 09005KT 8SM -RA SCT022 BKN035 OVC047 10/09 A3013 RMK AO2 RAE04B22 SLP204 P0003 T01000089
Loading
Personal Weather Stations






























Interactive Weather Map New forecast layout! Learn more

10-Day Weather Forecast

Advertisements
Track Severe Weather on mobile